sensor_id;sensor_type;location;lat;lon;timestamp;P1;durP1;ratioP1;P2;durP2;ratioP2
34212;SDS011;20477;51.390;8.102;2023-02-23T00:00:48;20.60;;;9.57;;
34212;SDS011;20477;51.390;8.102;2023-02-23T00:03:16;16.52;;;9.73;;
34212;SDS011;20477;51.390;8.102;2023-02-23T00:05:45;20.10;;;11.07;;
34212;SDS011;20477;51.390;8.102;2023-02-23T00:08:13;25.63;;;14.52;;
34212;SDS011;20477;51.390;8.102;2023-02-23T00:10:41;19.40;;;12.95;;
34212;SDS011;20477;51.390;8.102;2023-02-23T00:13:11;26.80;;;13.32;;
34212;SDS011;20477;51.390;8.102;2023-02-23T00:15:39;26.45;;;12.30;;
34212;SDS011;20477;51.390;8.102;2023-02-23T00:18:07;18.52;;;10.23;;
34212;SDS011;20477;51.390;8.102;2023-02-23T00:20:35;16.73;;;8.70;;
34212;SDS011;20477;51.390;8.102;2023-02-23T00:23:09;15.75;;;8.95;;
34212;SDS011;20477;51.390;8.102;2023-02-23T00:25:37;14.75;;;8.52;;
34212;SDS011;20477;51.390;8.102;2023-02-23T00:28:07;18.05;;;8.93;;
34212;SDS011;20477;51.390;8.102;2023-02-23T00:30:36;20.02;;;9.98;;
34212;SDS011;20477;51.390;8.102;2023-02-23T00:33:05;16.95;;;9.77;;
34212;SDS011;20477;51.390;8.102;2023-02-23T00:35:33;21.42;;;10.05;;
34212;SDS011;20477;51.390;8.102;2023-02-23T00:38:01;15.40;;;9.00;;
34212;SDS011;20477;51.390;8.102;2023-02-23T00:40:29;14.43;;;8.98;;
34212;SDS011;20477;51.390;8.102;2023-02-23T00:42:58;18.63;;;9.75;;
34212;SDS011;20477;51.390;8.102;2023-02-23T00:45:27;23.60;;;12.90;;
34212;SDS011;20477;51.390;8.102;2023-02-23T00:47:57;32.47;;;13.82;;
34212;SDS011;20477;51.390;8.102;2023-02-23T00:50:25;38.75;;;16.85;;
34212;SDS011;20477;51.390;8.102;2023-02-23T00:52:55;50.00;;;20.25;;
34212;SDS011;20477;51.390;8.102;2023-02-23T00:55:24;43.58;;;18.55;;
34212;SDS011;20477;51.390;8.102;2023-02-23T00:57:53;35.35;;;15.82;;
34212;SDS011;20477;51.390;8.102;2023-02-23T01:00:21;32.22;;;16.27;;
34212;SDS011;20477;51.390;8.102;2023-02-23T01:02:51;29.80;;;15.15;;
34212;SDS011;20477;51.390;8.102;2023-02-23T01:05:21;25.10;;;15.40;;
34212;SDS011;20477;51.390;8.102;2023-02-23T01:07:49;27.88;;;15.60;;
34212;SDS011;20477;51.390;8.102;2023-02-23T01:10:17;34.00;;;13.88;;
34212;SDS011;20477;51.390;8.102;2023-02-23T01:12:46;25.90;;;13.15;;
34212;SDS011;20477;51.390;8.102;2023-02-23T01:15:14;26.13;;;14.75;;
34212;SDS011;20477;51.390;8.102;2023-02-23T01:17:43;33.10;;;13.82;;
34212;SDS011;20477;51.390;8.102;2023-02-23T01:20:13;20.98;;;13.57;;
34212;SDS011;20477;51.390;8.102;2023-02-23T01:22:46;22.73;;;13.80;;
34212;SDS011;20477;51.390;8.102;2023-02-23T01:25:15;27.02;;;14.35;;
34212;SDS011;20477;51.390;8.102;2023-02-23T01:27:44;25.92;;;14.20;;
34212;SDS011;20477;51.390;8.102;2023-02-23T01:30:13;24.02;;;13.90;;
34212;SDS011;20477;51.390;8.102;2023-02-23T01:32:41;26.50;;;14.63;;
34212;SDS011;20477;51.390;8.102;2023-02-23T01:35:10;28.48;;;15.77;;
34212;SDS011;20477;51.390;8.102;2023-02-23T01:37:39;24.25;;;15.43;;
34212;SDS011;20477;51.390;8.102;2023-02-23T01:40:11;29.02;;;15.65;;
34212;SDS011;20477;51.390;8.102;2023-02-23T01:42:42;24.38;;;15.70;;
34212;SDS011;20477;51.390;8.102;2023-02-23T01:45:17;26.20;;;15.07;;
34212;SDS011;20477;51.390;8.102;2023-02-23T01:47:49;26.23;;;15.52;;
34212;SDS011;20477;51.390;8.102;2023-02-23T01:50:19;29.20;;;15.48;;
34212;SDS011;20477;51.390;8.102;2023-02-23T01:52:49;24.83;;;14.82;;
34212;SDS011;20477;51.390;8.102;2023-02-23T01:55:20;23.15;;;14.90;;
34212;SDS011;20477;51.390;8.102;2023-02-23T01:57:50;26.98;;;15.20;;
34212;SDS011;20477;51.390;8.102;2023-02-23T02:00:21;23.45;;;15.90;;
34212;SDS011;20477;51.390;8.102;2023-02-23T02:02:51;24.95;;;15.20;;
34212;SDS011;20477;51.390;8.102;2023-02-23T02:05:20;28.00;;;16.13;;
34212;SDS011;20477;51.390;8.102;2023-02-23T02:07:48;27.17;;;16.45;;
34212;SDS011;20477;51.390;8.102;2023-02-23T02:10:26;28.00;;;15.48;;
34212;SDS011;20477;51.390;8.102;2023-02-23T02:13:11;22.42;;;15.70;;
34212;SDS011;20477;51.390;8.102;2023-02-23T02:15:56;29.45;;;16.65;;
34212;SDS011;20477;51.390;8.102;2023-02-23T02:18:46;23.98;;;16.40;;
34212;SDS011;20477;51.390;8.102;2023-02-23T02:33:52;24.40;;;15.35;;
34212;SDS011;20477;51.390;8.102;2023-02-23T02:39:54;24.42;;;17.35;;
34212;SDS011;20477;51.390;8.102;2023-02-23T02:42:45;24.77;;;16.65;;
34212;SDS011;20477;51.390;8.102;2023-02-23T02:45:36;29.98;;;17.48;;
34212;SDS011;20477;51.390;8.102;2023-02-23T02:48:14;24.65;;;17.45;;
34212;SDS011;20477;51.390;8.102;2023-02-23T02:50:49;33.20;;;18.88;;
34212;SDS011;20477;51.390;8.102;2023-02-23T02:53:24;28.20;;;17.25;;
34212;SDS011;20477;51.390;8.102;2023-02-23T02:55:55;28.48;;;16.70;;
34212;SDS011;20477;51.390;8.102;2023-02-23T02:58:26;25.70;;;16.85;;
34212;SDS011;20477;51.390;8.102;2023-02-23T03:00:56;23.77;;;15.40;;
34212;SDS011;20477;51.390;8.102;2023-02-23T03:03:49;25.30;;;15.30;;
34212;SDS011;20477;51.390;8.102;2023-02-23T03:06:36;26.58;;;15.95;;
34212;SDS011;20477;51.390;8.102;2023-02-23T03:09:31;22.02;;;14.57;;
34212;SDS011;20477;51.390;8.102;2023-02-23T03:12:24;26.23;;;16.15;;
34212;SDS011;20477;51.390;8.102;2023-02-23T03:15:16;24.20;;;14.87;;
34212;SDS011;20477;51.390;8.102;2023-02-23T03:18:17;27.38;;;16.00;;
34212;SDS011;20477;51.390;8.102;2023-02-23T03:21:11;28.25;;;15.40;;
34212;SDS011;20477;51.390;8.102;2023-02-23T03:24:01;28.75;;;16.88;;
34212;SDS011;20477;51.390;8.102;2023-02-23T03:26:54;27.10;;;17.10;;
34212;SDS011;20477;51.390;8.102;2023-02-23T03:29:44;26.40;;;17.23;;
34212;SDS011;20477;51.390;8.102;2023-02-23T03:32:32;26.48;;;17.42;;
34212;SDS011;20477;51.390;8.102;2023-02-23T03:35:21;29.35;;;18.25;;
34212;SDS011;20477;51.390;8.102;2023-02-23T03:38:12;28.70;;;18.85;;
34212;SDS011;20477;51.390;8.102;2023-02-23T03:41:00;26.30;;;18.17;;
34212;SDS011;20477;51.390;8.102;2023-02-23T03:43:49;26.85;;;18.42;;
34212;SDS011;20477;51.390;8.102;2023-02-23T03:46:37;25.15;;;18.15;;
34212;SDS011;20477;51.390;8.102;2023-02-23T03:49:23;25.48;;;17.73;;
34212;SDS011;20477;51.390;8.102;2023-02-23T03:52:14;25.55;;;16.95;;
34212;SDS011;20477;51.390;8.102;2023-02-23T03:55:02;26.05;;;17.38;;
34212;SDS011;20477;51.390;8.102;2023-02-23T03:57:50;28.23;;;18.55;;
34212;SDS011;20477;51.390;8.102;2023-02-23T04:00:41;27.27;;;18.17;;
34212;SDS011;20477;51.390;8.102;2023-02-23T04:03:30;27.98;;;19.20;;
34212;SDS011;20477;51.390;8.102;2023-02-23T04:06:18;29.63;;;20.02;;
34212;SDS011;20477;51.390;8.102;2023-02-23T04:09:05;28.48;;;18.90;;
34212;SDS011;20477;51.390;8.102;2023-02-23T04:11:53;30.90;;;18.58;;
34212;SDS011;20477;51.390;8.102;2023-02-23T04:14:43;30.83;;;18.77;;
34212;SDS011;20477;51.390;8.102;2023-02-23T04:17:17;31.25;;;17.63;;
34212;SDS011;20477;51.390;8.102;2023-02-23T04:19:50;30.52;;;18.40;;
34212;SDS011;20477;51.390;8.102;2023-02-23T04:22:19;28.33;;;18.70;;
34212;SDS011;20477;51.390;8.102;2023-02-23T04:24:48;27.27;;;18.10;;
34212;SDS011;20477;51.390;8.102;2023-02-23T04:27:16;29.13;;;17.80;;
34212;SDS011;20477;51.390;8.102;2023-02-23T04:29:44;30.83;;;18.63;;
34212;SDS011;20477;51.390;8.102;2023-02-23T04:32:13;27.90;;;17.75;;
34212;SDS011;20477;51.390;8.102;2023-02-23T04:34:44;29.98;;;18.00;;
34212;SDS011;20477;51.390;8.102;2023-02-23T04:37:12;32.50;;;18.02;;
34212;SDS011;20477;51.390;8.102;2023-02-23T04:39:41;26.10;;;17.40;;
34212;SDS011;20477;51.390;8.102;2023-02-23T04:42:13;30.63;;;18.42;;
34212;SDS011;20477;51.390;8.102;2023-02-23T04:44:42;37.10;;;18.88;;
34212;SDS011;20477;51.390;8.102;2023-02-23T04:47:10;33.25;;;18.35;;
34212;SDS011;20477;51.390;8.102;2023-02-23T04:49:38;25.98;;;17.50;;
34212;SDS011;20477;51.390;8.102;2023-02-23T04:52:07;25.85;;;17.30;;
34212;SDS011;20477;51.390;8.102;2023-02-23T04:54:36;31.77;;;17.92;;
34212;SDS011;20477;51.390;8.102;2023-02-23T04:57:05;31.00;;;18.27;;
34212;SDS011;20477;51.390;8.102;2023-02-23T04:59:34;32.55;;;18.00;;
34212;SDS011;20477;51.390;8.102;2023-02-23T05:02:02;28.27;;;17.77;;
34212;SDS011;20477;51.390;8.102;2023-02-23T05:04:30;33.78;;;18.38;;
34212;SDS011;20477;51.390;8.102;2023-02-23T05:07:00;28.73;;;18.85;;
34212;SDS011;20477;51.390;8.102;2023-02-23T05:09:30;31.30;;;18.88;;
34212;SDS011;20477;51.390;8.102;2023-02-23T05:11:58;34.25;;;19.95;;
34212;SDS011;20477;51.390;8.102;2023-02-23T05:14:26;32.75;;;19.15;;
34212;SDS011;20477;51.390;8.102;2023-02-23T05:16:54;33.45;;;20.02;;
34212;SDS011;20477;51.390;8.102;2023-02-23T05:19:22;33.33;;;19.98;;
34212;SDS011;20477;51.390;8.102;2023-02-23T05:21:50;34.92;;;19.50;;
34212;SDS011;20477;51.390;8.102;2023-02-23T05:24:19;32.80;;;19.77;;
34212;SDS011;20477;51.390;8.102;2023-02-23T05:26:48;34.70;;;20.05;;
34212;SDS011;20477;51.390;8.102;2023-02-23T05:29:16;32.13;;;20.38;;
34212;SDS011;20477;51.390;8.102;2023-02-23T05:31:44;35.95;;;20.77;;
34212;SDS011;20477;51.390;8.102;2023-02-23T05:34:14;36.47;;;21.05;;
34212;SDS011;20477;51.390;8.102;2023-02-23T05:36:42;34.67;;;22.67;;
34212;SDS011;20477;51.390;8.102;2023-02-23T05:39:10;40.42;;;23.27;;
34212;SDS011;20477;51.390;8.102;2023-02-23T05:41:38;35.95;;;22.35;;
34212;SDS011;20477;51.390;8.102;2023-02-23T05:44:08;35.78;;;23.08;;
34212;SDS011;20477;51.390;8.102;2023-02-23T05:46:36;39.85;;;23.42;;
34212;SDS011;20477;51.390;8.102;2023-02-23T05:49:04;38.30;;;23.73;;
34212;SDS011;20477;51.390;8.102;2023-02-23T05:51:33;39.22;;;22.67;;
34212;SDS011;20477;51.390;8.102;2023-02-23T05:57:42;42.38;;;23.30;;
34212;SDS011;20477;51.390;8.102;2023-02-23T06:00:13;37.47;;;25.00;;
34212;SDS011;20477;51.390;8.102;2023-02-23T06:02:42;40.88;;;27.05;;
34212;SDS011;20477;51.390;8.102;2023-02-23T06:05:10;42.25;;;26.50;;
34212;SDS011;20477;51.390;8.102;2023-02-23T06:07:39;44.17;;;26.00;;
34212;SDS011;20477;51.390;8.102;2023-02-23T06:10:08;47.00;;;26.77;;
34212;SDS011;20477;51.390;8.102;2023-02-23T06:12:36;40.90;;;26.10;;
34212;SDS011;20477;51.390;8.102;2023-02-23T06:15:05;39.80;;;25.95;;
34212;SDS011;20477;51.390;8.102;2023-02-23T06:17:35;42.28;;;27.10;;
34212;SDS011;20477;51.390;8.102;2023-02-23T06:20:04;44.22;;;27.73;;
34212;SDS011;20477;51.390;8.102;2023-02-23T06:22:32;43.17;;;26.23;;
34212;SDS011;20477;51.390;8.102;2023-02-23T06:25:01;41.10;;;26.60;;
34212;SDS011;20477;51.390;8.102;2023-02-23T06:27:30;43.47;;;25.77;;
34212;SDS011;20477;51.390;8.102;2023-02-23T06:29:58;47.88;;;26.65;;
34212;SDS011;20477;51.390;8.102;2023-02-23T06:32:26;46.00;;;26.88;;
34212;SDS011;20477;51.390;8.102;2023-02-23T06:34:56;46.58;;;26.60;;
34212;SDS011;20477;51.390;8.102;2023-02-23T06:37:25;45.75;;;26.77;;
34212;SDS011;20477;51.390;8.102;2023-02-23T06:39:53;48.55;;;27.33;;
34212;SDS011;20477;51.390;8.102;2023-02-23T06:42:21;42.47;;;25.92;;
34212;SDS011;20477;51.390;8.102;2023-02-23T06:44:49;42.10;;;26.45;;
34212;SDS011;20477;51.390;8.102;2023-02-23T06:47:17;43.30;;;25.17;;
34212;SDS011;20477;51.390;8.102;2023-02-23T06:49:45;44.45;;;27.35;;
34212;SDS011;20477;51.390;8.102;2023-02-23T06:52:15;35.83;;;24.02;;
34212;SDS011;20477;51.390;8.102;2023-02-23T06:54:43;43.40;;;24.88;;
34212;SDS011;20477;51.390;8.102;2023-02-23T06:57:13;42.17;;;26.67;;
34212;SDS011;20477;51.390;8.102;2023-02-23T06:59:41;48.40;;;27.23;;
34212;SDS011;20477;51.390;8.102;2023-02-23T07:02:10;39.63;;;25.58;;
34212;SDS011;20477;51.390;8.102;2023-02-23T07:04:38;45.40;;;27.20;;
34212;SDS011;20477;51.390;8.102;2023-02-23T07:07:06;40.72;;;25.55;;
34212;SDS011;20477;51.390;8.102;2023-02-23T07:09:37;44.20;;;26.45;;
34212;SDS011;20477;51.390;8.102;2023-02-23T07:12:06;45.15;;;27.25;;
34212;SDS011;20477;51.390;8.102;2023-02-23T07:14:34;43.80;;;27.13;;
34212;SDS011;20477;51.390;8.102;2023-02-23T07:17:03;44.58;;;26.63;;
34212;SDS011;20477;51.390;8.102;2023-02-23T07:19:31;46.22;;;27.83;;
34212;SDS011;20477;51.390;8.102;2023-02-23T07:21:59;39.75;;;26.63;;
34212;SDS011;20477;51.390;8.102;2023-02-23T07:24:28;44.20;;;27.65;;
34212;SDS011;20477;51.390;8.102;2023-02-23T07:26:57;45.80;;;27.08;;
34212;SDS011;20477;51.390;8.102;2023-02-23T07:29:25;42.15;;;27.50;;
34212;SDS011;20477;51.390;8.102;2023-02-23T07:31:54;39.72;;;27.63;;
34212;SDS011;20477;51.390;8.102;2023-02-23T07:34:22;51.15;;;29.92;;
34212;SDS011;20477;51.390;8.102;2023-02-23T07:36:50;50.13;;;29.58;;
34212;SDS011;20477;51.390;8.102;2023-02-23T07:39:19;45.80;;;28.00;;
34212;SDS011;20477;51.390;8.102;2023-02-23T07:41:47;45.95;;;28.17;;
34212;SDS011;20477;51.390;8.102;2023-02-23T07:44:18;46.63;;;28.63;;
34212;SDS011;20477;51.390;8.102;2023-02-23T07:46:46;45.10;;;26.85;;
34212;SDS011;20477;51.390;8.102;2023-02-23T07:49:15;42.05;;;28.13;;
34212;SDS011;20477;51.390;8.102;2023-02-23T07:51:43;58.45;;;29.23;;
34212;SDS011;20477;51.390;8.102;2023-02-23T07:54:12;44.97;;;27.27;;
34212;SDS011;20477;51.390;8.102;2023-02-23T07:56:41;60.13;;;30.45;;
34212;SDS011;20477;51.390;8.102;2023-02-23T07:59:09;51.25;;;28.70;;
34212;SDS011;20477;51.390;8.102;2023-02-23T08:01:38;44.22;;;27.67;;
34212;SDS011;20477;51.390;8.102;2023-02-23T08:04:06;48.38;;;29.60;;
34212;SDS011;20477;51.390;8.102;2023-02-23T08:06:35;48.28;;;28.88;;
34212;SDS011;20477;51.390;8.102;2023-02-23T08:09:03;43.78;;;28.67;;
34212;SDS011;20477;51.390;8.102;2023-02-23T08:11:31;50.80;;;30.38;;
34212;SDS011;20477;51.390;8.102;2023-02-23T08:13:59;48.00;;;28.80;;
34212;SDS011;20477;51.390;8.102;2023-02-23T08:16:28;47.50;;;30.27;;
34212;SDS011;20477;51.390;8.102;2023-02-23T08:18:59;50.33;;;31.35;;
34212;SDS011;20477;51.390;8.102;2023-02-23T08:21:28;53.60;;;30.83;;
34212;SDS011;20477;51.390;8.102;2023-02-23T08:23:56;49.78;;;31.35;;
34212;SDS011;20477;51.390;8.102;2023-02-23T08:26:25;55.25;;;31.80;;
34212;SDS011;20477;51.390;8.102;2023-02-23T08:28:53;50.30;;;32.30;;
34212;SDS011;20477;51.390;8.102;2023-02-23T08:31:24;61.90;;;38.22;;
34212;SDS011;20477;51.390;8.102;2023-02-23T08:33:53;61.17;;;37.25;;
34212;SDS011;20477;51.390;8.102;2023-02-23T08:36:22;79.63;;;45.30;;
34212;SDS011;20477;51.390;8.102;2023-02-23T08:38:50;76.45;;;44.30;;
34212;SDS011;20477;51.390;8.102;2023-02-23T08:41:19;82.28;;;49.00;;
34212;SDS011;20477;51.390;8.102;2023-02-23T08:43:48;87.95;;;51.50;;
34212;SDS011;20477;51.390;8.102;2023-02-23T08:46:16;89.25;;;50.17;;
34212;SDS011;20477;51.390;8.102;2023-02-23T08:48:45;93.05;;;54.25;;
34212;SDS011;20477;51.390;8.102;2023-02-23T08:51:14;105.43;;;55.25;;
34212;SDS011;20477;51.390;8.102;2023-02-23T08:53:44;108.32;;;56.30;;
34212;SDS011;20477;51.390;8.102;2023-02-23T08:56:12;107.43;;;55.80;;
34212;SDS011;20477;51.390;8.102;2023-02-23T08:58:41;101.47;;;56.97;;
34212;SDS011;20477;51.390;8.102;2023-02-23T09:01:14;107.50;;;58.92;;
34212;SDS011;20477;51.390;8.102;2023-02-23T09:03:44;111.57;;;60.95;;
34212;SDS011;20477;51.390;8.102;2023-02-23T09:06:14;103.30;;;57.78;;
34212;SDS011;20477;51.390;8.102;2023-02-23T09:08:45;101.10;;;56.22;;
34212;SDS011;20477;51.390;8.102;2023-02-23T09:11:14;102.90;;;56.55;;
34212;SDS011;20477;51.390;8.102;2023-02-23T09:13:42;103.97;;;56.85;;
34212;SDS011;20477;51.390;8.102;2023-02-23T09:16:10;98.15;;;56.30;;
34212;SDS011;20477;51.390;8.102;2023-02-23T09:18:39;105.30;;;58.67;;
34212;SDS011;20477;51.390;8.102;2023-02-23T09:21:15;105.90;;;58.25;;
34212;SDS011;20477;51.390;8.102;2023-02-23T09:23:48;99.28;;;56.90;;
34212;SDS011;20477;51.390;8.102;2023-02-23T09:26:17;105.18;;;58.05;;
34212;SDS011;20477;51.390;8.102;2023-02-23T09:28:46;97.28;;;56.90;;
34212;SDS011;20477;51.390;8.102;2023-02-23T09:31:15;96.40;;;56.00;;
34212;SDS011;20477;51.390;8.102;2023-02-23T09:33:45;92.40;;;55.08;;
34212;SDS011;20477;51.390;8.102;2023-02-23T09:36:15;104.50;;;59.58;;
34212;SDS011;20477;51.390;8.102;2023-02-23T09:38:44;99.25;;;57.35;;
34212;SDS011;20477;51.390;8.102;2023-02-23T09:41:35;99.35;;;56.47;;
34212;SDS011;20477;51.390;8.102;2023-02-23T09:44:18;89.78;;;53.95;;
34212;SDS011;20477;51.390;8.102;2023-02-23T09:46:54;98.45;;;54.83;;
34212;SDS011;20477;51.390;8.102;2023-02-23T09:49:31;102.35;;;57.85;;
34212;SDS011;20477;51.390;8.102;2023-02-23T09:52:01;108.15;;;56.92;;
34212;SDS011;20477;51.390;8.102;2023-02-23T09:54:31;121.28;;;62.97;;
34212;SDS011;20477;51.390;8.102;2023-02-23T09:57:03;127.80;;;65.22;;
34212;SDS011;20477;51.390;8.102;2023-02-23T09:59:33;127.35;;;64.88;;
34212;SDS011;20477;51.390;8.102;2023-02-23T10:02:03;141.57;;;64.40;;
34212;SDS011;20477;51.390;8.102;2023-02-23T10:04:35;131.07;;;66.20;;
34212;SDS011;20477;51.390;8.102;2023-02-23T10:07:09;146.68;;;67.88;;
34212;SDS011;20477;51.390;8.102;2023-02-23T10:09:46;135.30;;;65.97;;
34212;SDS011;20477;51.390;8.102;2023-02-23T10:12:28;146.88;;;69.38;;
34212;SDS011;20477;51.390;8.102;2023-02-23T10:15:02;130.52;;;64.50;;
34212;SDS011;20477;51.390;8.102;2023-02-23T10:17:38;137.70;;;67.60;;
34212;SDS011;20477;51.390;8.102;2023-02-23T10:20:12;138.88;;;65.85;;
34212;SDS011;20477;51.390;8.102;2023-02-23T10:22:46;130.57;;;65.70;;
34212;SDS011;20477;51.390;8.102;2023-02-23T10:25:16;123.00;;;63.20;;
34212;SDS011;20477;51.390;8.102;2023-02-23T10:27:48;118.88;;;63.25;;
34212;SDS011;20477;51.390;8.102;2023-02-23T10:30:17;114.00;;;59.30;;
34212;SDS011;20477;51.390;8.102;2023-02-23T10:32:49;115.43;;;60.58;;
34212;SDS011;20477;51.390;8.102;2023-02-23T10:35:21;100.40;;;56.90;;
34212;SDS011;20477;51.390;8.102;2023-02-23T10:37:50;98.70;;;55.28;;
34212;SDS011;20477;51.390;8.102;2023-02-23T10:40:21;101.32;;;54.92;;
34212;SDS011;20477;51.390;8.102;2023-02-23T10:42:51;96.72;;;53.08;;
34212;SDS011;20477;51.390;8.102;2023-02-23T10:45:21;97.80;;;53.13;;
34212;SDS011;20477;51.390;8.102;2023-02-23T10:47:51;95.72;;;51.25;;
34212;SDS011;20477;51.390;8.102;2023-02-23T10:50:22;90.18;;;52.72;;
34212;SDS011;20477;51.390;8.102;2023-02-23T10:52:53;92.68;;;52.70;;
34212;SDS011;20477;51.390;8.102;2023-02-23T10:55:25;84.77;;;47.90;;
34212;SDS011;20477;51.390;8.102;2023-02-23T10:58:03;94.70;;;51.15;;
34212;SDS011;20477;51.390;8.102;2023-02-23T11:00:36;88.57;;;50.30;;
34212;SDS011;20477;51.390;8.102;2023-02-23T11:03:15;90.07;;;50.83;;
34212;SDS011;20477;51.390;8.102;2023-02-23T11:05:45;80.15;;;47.25;;
34212;SDS011;20477;51.390;8.102;2023-02-23T11:08:26;85.35;;;47.95;;
34212;SDS011;20477;51.390;8.102;2023-02-23T11:11:00;89.75;;;48.55;;
34212;SDS011;20477;51.390;8.102;2023-02-23T11:13:39;85.90;;;47.53;;
34212;SDS011;20477;51.390;8.102;2023-02-23T11:16:09;85.80;;;49.05;;
34212;SDS011;20477;51.390;8.102;2023-02-23T11:18:39;78.90;;;45.05;;
34212;SDS011;20477;51.390;8.102;2023-02-23T11:21:09;76.88;;;46.67;;
34212;SDS011;20477;51.390;8.102;2023-02-23T11:23:39;79.32;;;46.15;;
34212;SDS011;20477;51.390;8.102;2023-02-23T11:29:00;85.13;;;46.90;;
34212;SDS011;20477;51.390;8.102;2023-02-23T11:31:36;73.97;;;42.00;;
34212;SDS011;20477;51.390;8.102;2023-02-23T11:34:06;73.82;;;42.03;;
34212;SDS011;20477;51.390;8.102;2023-02-23T11:36:34;76.75;;;42.70;;
34212;SDS011;20477;51.390;8.102;2023-02-23T11:39:05;69.20;;;40.45;;
34212;SDS011;20477;51.390;8.102;2023-02-23T11:41:36;74.93;;;41.28;;
34212;SDS011;20477;51.390;8.102;2023-02-23T11:44:05;75.25;;;42.35;;
34212;SDS011;20477;51.390;8.102;2023-02-23T11:46:35;79.88;;;43.35;;
34212;SDS011;20477;51.390;8.102;2023-02-23T11:49:05;77.53;;;42.60;;
34212;SDS011;20477;51.390;8.102;2023-02-23T11:51:35;71.28;;;41.53;;
34212;SDS011;20477;51.390;8.102;2023-02-23T11:54:05;75.38;;;43.13;;
34212;SDS011;20477;51.390;8.102;2023-02-23T11:56:35;83.35;;;44.35;;
34212;SDS011;20477;51.390;8.102;2023-02-23T11:59:05;78.93;;;43.88;;
34212;SDS011;20477;51.390;8.102;2023-02-23T12:01:37;73.07;;;41.17;;
34212;SDS011;20477;51.390;8.102;2023-02-23T12:04:10;70.47;;;38.85;;
34212;SDS011;20477;51.390;8.102;2023-02-23T12:06:50;63.20;;;37.45;;
34212;SDS011;20477;51.390;8.102;2023-02-23T12:09:19;73.65;;;39.45;;
34212;SDS011;20477;51.390;8.102;2023-02-23T12:11:50;75.75;;;41.15;;
34212;SDS011;20477;51.390;8.102;2023-02-23T12:14:26;72.80;;;39.67;;
34212;SDS011;20477;51.390;8.102;2023-02-23T12:16:59;68.75;;;39.95;;
34212;SDS011;20477;51.390;8.102;2023-02-23T12:19:31;78.47;;;40.23;;
34212;SDS011;20477;51.390;8.102;2023-02-23T12:22:01;78.15;;;42.08;;
34212;SDS011;20477;51.390;8.102;2023-02-23T12:24:38;74.45;;;39.95;;
34212;SDS011;20477;51.390;8.102;2023-02-23T12:27:10;77.13;;;43.25;;
34212;SDS011;20477;51.390;8.102;2023-02-23T12:29:47;77.15;;;42.30;;
34212;SDS011;20477;51.390;8.102;2023-02-23T12:32:26;73.50;;;38.88;;
34212;SDS011;20477;51.390;8.102;2023-02-23T12:34:57;73.60;;;40.83;;
34212;SDS011;20477;51.390;8.102;2023-02-23T12:37:29;75.30;;;40.97;;
34212;SDS011;20477;51.390;8.102;2023-02-23T12:40:06;69.05;;;40.72;;
34212;SDS011;20477;51.390;8.102;2023-02-23T12:42:43;70.15;;;39.38;;
34212;SDS011;20477;51.390;8.102;2023-02-23T12:45:19;67.15;;;38.08;;
34212;SDS011;20477;51.390;8.102;2023-02-23T12:47:51;71.13;;;39.67;;
34212;SDS011;20477;51.390;8.102;2023-02-23T12:50:24;69.95;;;37.78;;
34212;SDS011;20477;51.390;8.102;2023-02-23T12:52:55;63.78;;;37.53;;
34212;SDS011;20477;51.390;8.102;2023-02-23T12:55:29;61.35;;;36.10;;
34212;SDS011;20477;51.390;8.102;2023-02-23T12:58:05;60.00;;;37.03;;
34212;SDS011;20477;51.390;8.102;2023-02-23T13:00:43;64.32;;;35.30;;
34212;SDS011;20477;51.390;8.102;2023-02-23T13:06:22;59.35;;;34.70;;
34212;SDS011;20477;51.390;8.102;2023-02-23T13:08:57;58.53;;;36.28;;
34212;SDS011;20477;51.390;8.102;2023-02-23T13:11:37;57.15;;;37.00;;
34212;SDS011;20477;51.390;8.102;2023-02-23T13:14:14;72.63;;;40.77;;
34212;SDS011;20477;51.390;8.102;2023-02-23T13:16:49;73.63;;;38.63;;
34212;SDS011;20477;51.390;8.102;2023-02-23T13:19:20;74.80;;;41.05;;
34212;SDS011;20477;51.390;8.102;2023-02-23T13:21:51;72.10;;;40.80;;
34212;SDS011;20477;51.390;8.102;2023-02-23T13:24:22;88.93;;;45.58;;
34212;SDS011;20477;51.390;8.102;2023-02-23T13:26:53;96.43;;;48.95;;
34212;SDS011;20477;51.390;8.102;2023-02-23T13:29:27;97.57;;;49.33;;
34212;SDS011;20477;51.390;8.102;2023-02-23T13:32:01;101.72;;;50.22;;
34212;SDS011;20477;51.390;8.102;2023-02-23T13:34:32;105.95;;;51.85;;
34212;SDS011;20477;51.390;8.102;2023-02-23T13:37:04;115.10;;;51.35;;
34212;SDS011;20477;51.390;8.102;2023-02-23T13:39:37;116.47;;;51.35;;
34212;SDS011;20477;51.390;8.102;2023-02-23T13:42:18;114.15;;;51.00;;
34212;SDS011;20477;51.390;8.102;2023-02-23T13:45:11;120.38;;;51.38;;
34212;SDS011;20477;51.390;8.102;2023-02-23T13:47:54;110.75;;;49.10;;
34212;SDS011;20477;51.390;8.102;2023-02-23T13:50:25;117.88;;;51.25;;
34212;SDS011;20477;51.390;8.102;2023-02-23T13:52:59;115.00;;;50.95;;
34212;SDS011;20477;51.390;8.102;2023-02-23T13:55:35;120.03;;;53.90;;
34212;SDS011;20477;51.390;8.102;2023-02-23T13:58:16;124.47;;;54.83;;
34212;SDS011;20477;51.390;8.102;2023-02-23T14:00:49;126.38;;;56.67;;
34212;SDS011;20477;51.390;8.102;2023-02-23T14:03:23;141.55;;;61.90;;
34212;SDS011;20477;51.390;8.102;2023-02-23T14:05:54;151.90;;;66.37;;
34212;SDS011;20477;51.390;8.102;2023-02-23T14:08:27;166.88;;;68.90;;
34212;SDS011;20477;51.390;8.102;2023-02-23T14:10:59;154.27;;;61.35;;
34212;SDS011;20477;51.390;8.102;2023-02-23T14:13:29;158.07;;;62.95;;
34212;SDS011;20477;51.390;8.102;2023-02-23T14:16:09;147.13;;;59.47;;
34212;SDS011;20477;51.390;8.102;2023-02-23T14:18:53;152.50;;;59.15;;
34212;SDS011;20477;51.390;8.102;2023-02-23T14:21:28;142.27;;;55.28;;
34212;SDS011;20477;51.390;8.102;2023-02-23T14:24:02;149.60;;;56.67;;
34212;SDS011;20477;51.390;8.102;2023-02-23T14:26:38;139.48;;;56.28;;
34212;SDS011;20477;51.390;8.102;2023-02-23T14:29:27;137.73;;;55.35;;
34212;SDS011;20477;51.390;8.102;2023-02-23T14:32:01;141.80;;;57.55;;
34212;SDS011;20477;51.390;8.102;2023-02-23T14:34:47;144.35;;;58.67;;
34212;SDS011;20477;51.390;8.102;2023-02-23T14:37:17;126.05;;;52.97;;
34212;SDS011;20477;51.390;8.102;2023-02-23T14:39:51;129.85;;;51.38;;
34212;SDS011;20477;51.390;8.102;2023-02-23T14:42:21;130.00;;;51.15;;
34212;SDS011;20477;51.390;8.102;2023-02-23T14:44:51;134.93;;;54.28;;
34212;SDS011;20477;51.390;8.102;2023-02-23T14:47:20;124.65;;;49.47;;
34212;SDS011;20477;51.390;8.102;2023-02-23T14:49:53;134.48;;;52.90;;
34212;SDS011;20477;51.390;8.102;2023-02-23T14:52:24;118.68;;;49.85;;
34212;SDS011;20477;51.390;8.102;2023-02-23T14:55:03;105.43;;;43.17;;
34212;SDS011;20477;51.390;8.102;2023-02-23T14:57:34;106.13;;;42.45;;
34212;SDS011;20477;51.390;8.102;2023-02-23T15:00:06;102.88;;;41.33;;
34212;SDS011;20477;51.390;8.102;2023-02-23T15:02:39;96.18;;;40.97;;
34212;SDS011;20477;51.390;8.102;2023-02-23T15:05:22;96.70;;;42.53;;
34212;SDS011;20477;51.390;8.102;2023-02-23T15:07:51;98.68;;;42.00;;
34212;SDS011;20477;51.390;8.102;2023-02-23T15:10:23;97.68;;;42.95;;
34212;SDS011;20477;51.390;8.102;2023-02-23T15:15:23;98.30;;;43.47;;
34212;SDS011;20477;51.390;8.102;2023-02-23T15:17:55;105.28;;;46.05;;